sensor_id;sensor_type;location;lat;lon;timestamp;pressure;altitude;pressure_sealevel;temperature;humidity
51299;BME280;37382;45.192;9.790;2022-09-27T00:01:08;99769.47;;;17.88;100.00
51299;BME280;37382;45.192;9.790;2022-09-27T00:03:37;99760.34;;;17.77;100.00
51299;BME280;37382;45.192;9.790;2022-09-27T00:06:20;99760.34;;;17.83;100.00
51299;BME280;37382;45.192;9.790;2022-09-27T00:08:48;99755.81;;;18.09;100.00
51299;BME280;37382;45.192;9.790;2022-09-27T00:11:22;99752.25;;;18.34;100.00
51299;BME280;37382;45.192;9.790;2022-09-27T00:13:51;99751.97;;;18.20;100.00
51299;BME280;37382;45.192;9.790;2022-09-27T00:16:21;99753.84;;;17.94;100.00
51299;BME280;37382;45.192;9.790;2022-09-27T00:18:49;99752.72;;;17.95;100.00
51299;BME280;37382;45.192;9.790;2022-09-27T00:21:17;99745.63;;;18.09;100.00
51299;BME280;37382;45.192;9.790;2022-09-27T00:23:44;99743.91;;;17.93;100.00
51299;BME280;37382;45.192;9.790;2022-09-27T00:26:12;99740.06;;;17.99;100.00
51299;BME280;37382;45.192;9.790;2022-09-27T00:28:40;99729.38;;;18.13;100.00
51299;BME280;37382;45.192;9.790;2022-09-27T00:31:20;99734.06;;;18.33;100.00
51299;BME280;37382;45.192;9.790;2022-09-27T00:33:51;99728.53;;;18.18;100.00
51299;BME280;37382;45.192;9.790;2022-09-27T00:36:21;99722.22;;;18.12;100.00
51299;BME280;37382;45.192;9.790;2022-09-27T00:38:49;99718.66;;;18.17;100.00
51299;BME280;37382;45.192;9.790;2022-09-27T00:41:23;99728.56;;;18.07;100.00
51299;BME280;37382;45.192;9.790;2022-09-27T00:43:53;99725.22;;;18.00;100.00
51299;BME280;37382;45.192;9.790;2022-09-27T00:46:26;99727.41;;;17.98;100.00
51299;BME280;37382;45.192;9.790;2022-09-27T00:49:38;99715.25;;;17.84;100.00
51299;BME280;37382;45.192;9.790;2022-09-27T00:52:08;99700.69;;;17.83;100.00
51299;BME280;37382;45.192;9.790;2022-09-27T00:54:40;99693.28;;;18.04;100.00
51299;BME280;37382;45.192;9.790;2022-09-27T00:57:09;99703.78;;;18.18;100.00
51299;BME280;37382;45.192;9.790;2022-09-27T00:59:43;99688.34;;;17.91;100.00
51299;BME280;37382;45.192;9.790;2022-09-27T01:02:13;99689.19;;;18.07;100.00
51299;BME280;37382;45.192;9.790;2022-09-27T01:04:41;99681.97;;;17.85;100.00
51299;BME280;37382;45.192;9.790;2022-09-27T01:07:10;99680.91;;;17.96;100.00
51299;BME280;37382;45.192;9.790;2022-09-27T01:09:38;99691.53;;;17.62;100.00
51299;BME280;37382;45.192;9.790;2022-09-27T01:23:44;99649.44;;;17.51;100.00
51299;BME280;37382;45.192;9.790;2022-09-27T01:26:36;99662.88;;;17.42;100.00
51299;BME280;37382;45.192;9.790;2022-09-27T01:39:56;99650.31;;;17.72;100.00
51299;BME280;37382;45.192;9.790;2022-09-27T01:42:56;99630.47;;;17.60;100.00
51299;BME280;37382;45.192;9.790;2022-09-27T01:45:42;99628.63;;;17.91;100.00
51299;BME280;37382;45.192;9.790;2022-09-27T01:48:26;99626.34;;;17.63;100.00
51299;BME280;37382;45.192;9.790;2022-09-27T01:51:03;99622.91;;;17.14;100.00
51299;BME280;37382;45.192;9.790;2022-09-27T01:53:39;99619.69;;;17.43;100.00
51299;BME280;37382;45.192;9.790;2022-09-27T01:56:31;99619.78;;;17.79;100.00
51299;BME280;37382;45.192;9.790;2022-09-27T01:59:10;99618.59;;;17.34;100.00
51299;BME280;37382;45.192;9.790;2022-09-27T02:01:49;99605.59;;;17.14;100.00
51299;BME280;37382;45.192;9.790;2022-09-27T02:04:23;99608.84;;;17.00;100.00
51299;BME280;37382;45.192;9.790;2022-09-27T02:07:19;99607.22;;;16.99;100.00
51299;BME280;37382;45.192;9.790;2022-09-27T02:09:55;99608.41;;;17.24;100.00
51299;BME280;37382;45.192;9.790;2022-09-27T02:12:41;99601.50;;;17.16;100.00
51299;BME280;37382;45.192;9.790;2022-09-27T02:15:13;99603.66;;;17.14;100.00
51299;BME280;37382;45.192;9.790;2022-09-27T02:18:12;99602.13;;;17.39;100.00
51299;BME280;37382;45.192;9.790;2022-09-27T02:20:52;99599.59;;;17.32;100.00
51299;BME280;37382;45.192;9.790;2022-09-27T02:23:32;99603.72;;;17.24;100.00
51299;BME280;37382;45.192;9.790;2022-09-27T02:26:19;99598.56;;;17.43;100.00
51299;BME280;37382;45.192;9.790;2022-09-27T02:28:55;99599.09;;;17.40;100.00
51299;BME280;37382;45.192;9.790;2022-09-27T02:31:30;99600.19;;;17.39;100.00
51299;BME280;37382;45.192;9.790;2022-09-27T02:34:10;99599.88;;;17.25;100.00
51299;BME280;37382;45.192;9.790;2022-09-27T02:36:39;99595.47;;;17.19;100.00
51299;BME280;37382;45.192;9.790;2022-09-27T02:39:06;99591.84;;;17.14;100.00
51299;BME280;37382;45.192;9.790;2022-09-27T02:41:36;99585.31;;;17.30;100.00
51299;BME280;37382;45.192;9.790;2022-09-27T02:44:08;99580.59;;;17.15;100.00
51299;BME280;37382;45.192;9.790;2022-09-27T02:55:18;99559.38;;;17.00;100.00
51299;BME280;37382;45.192;9.790;2022-09-27T03:00:56;99567.53;;;16.85;100.00
51299;BME280;37382;45.192;9.790;2022-09-27T03:06:41;99563.19;;;16.89;100.00
51299;BME280;37382;45.192;9.790;2022-09-27T03:09:22;99561.97;;;16.69;100.00
51299;BME280;37382;45.192;9.790;2022-09-27T03:11:49;99564.50;;;16.81;100.00
51299;BME280;37382;45.192;9.790;2022-09-27T03:14:18;99554.75;;;17.06;100.00
51299;BME280;37382;45.192;9.790;2022-09-27T03:16:57;99558.00;;;16.93;100.00
51299;BME280;37382;45.192;9.790;2022-09-27T03:19:44;99550.78;;;16.81;100.00
51299;BME280;37382;45.192;9.790;2022-09-27T03:22:37;99549.47;;;16.89;100.00
51299;BME280;37382;45.192;9.790;2022-09-27T03:25:07;99551.06;;;16.80;100.00
51299;BME280;37382;45.192;9.790;2022-09-27T03:27:35;99536.75;;;16.78;100.00
51299;BME280;37382;45.192;9.790;2022-09-27T03:30:03;99536.81;;;16.88;100.00
51299;BME280;37382;45.192;9.790;2022-09-27T03:32:32;99530.16;;;16.84;100.00
51299;BME280;37382;45.192;9.790;2022-09-27T03:35:20;99532.88;;;16.68;100.00
51299;BME280;37382;45.192;9.790;2022-09-27T03:37:47;99532.06;;;16.73;100.00
51299;BME280;37382;45.192;9.790;2022-09-27T03:40:15;99527.91;;;16.60;100.00
51299;BME280;37382;45.192;9.790;2022-09-27T03:42:43;99537.00;;;16.66;100.00
51299;BME280;37382;45.192;9.790;2022-09-27T03:45:16;99547.16;;;16.70;100.00
51299;BME280;37382;45.192;9.790;2022-09-27T03:47:45;99549.06;;;16.70;100.00
51299;BME280;37382;45.192;9.790;2022-09-27T03:50:14;99544.44;;;16.70;100.00
51299;BME280;37382;45.192;9.790;2022-09-27T03:52:42;99541.09;;;16.68;100.00
51299;BME280;37382;45.192;9.790;2022-09-27T03:55:11;99538.09;;;16.70;100.00
51299;BME280;37382;45.192;9.790;2022-09-27T03:57:44;99539.53;;;16.83;100.00
51299;BME280;37382;45.192;9.790;2022-09-27T04:00:14;99552.41;;;16.72;100.00
51299;BME280;37382;45.192;9.790;2022-09-27T04:02:41;99550.41;;;16.62;100.00
51299;BME280;37382;45.192;9.790;2022-09-27T04:05:25;99548.56;;;16.78;100.00
51299;BME280;37382;45.192;9.790;2022-09-27T04:07:57;99550.13;;;16.64;100.00
51299;BME280;37382;45.192;9.790;2022-09-27T04:10:25;99544.91;;;16.57;100.00
51299;BME280;37382;45.192;9.790;2022-09-27T04:12:52;99549.81;;;16.55;100.00
51299;BME280;37382;45.192;9.790;2022-09-27T04:15:22;99547.13;;;16.60;100.00
51299;BME280;37382;45.192;9.790;2022-09-27T04:17:50;99546.31;;;16.70;100.00
51299;BME280;37382;45.192;9.790;2022-09-27T04:20:33;99537.28;;;16.69;100.00
51299;BME280;37382;45.192;9.790;2022-09-27T04:23:07;99532.06;;;16.73;100.00
51299;BME280;37382;45.192;9.790;2022-09-27T04:25:39;99538.59;;;16.62;100.00
51299;BME280;37382;45.192;9.790;2022-09-27T04:28:15;99538.28;;;16.48;100.00
51299;BME280;37382;45.192;9.790;2022-09-27T04:30:44;99531.63;;;16.39;100.00
51299;BME280;37382;45.192;9.790;2022-09-27T04:33:12;99533.94;;;16.62;100.00
51299;BME280;37382;45.192;9.790;2022-09-27T04:35:58;99517.84;;;16.86;100.00
51299;BME280;37382;45.192;9.790;2022-09-27T04:39:07;99515.94;;;16.87;100.00
51299;BME280;37382;45.192;9.790;2022-09-27T04:41:41;99515.56;;;16.73;100.00
51299;BME280;37382;45.192;9.790;2022-09-27T04:44:09;99516.91;;;16.60;100.00
51299;BME280;37382;45.192;9.790;2022-09-27T04:46:40;99516.97;;;16.76;100.00
51299;BME280;37382;45.192;9.790;2022-09-27T04:49:09;99510.34;;;16.66;100.00
51299;BME280;37382;45.192;9.790;2022-09-27T04:51:37;99504.06;;;16.76;100.00
51299;BME280;37382;45.192;9.790;2022-09-27T04:54:05;99504.91;;;16.77;100.00
51299;BME280;37382;45.192;9.790;2022-09-27T04:56:36;99505.41;;;16.68;100.00
51299;BME280;37382;45.192;9.790;2022-09-27T04:59:05;99500.22;;;16.72;100.00
51299;BME280;37382;45.192;9.790;2022-09-27T05:01:37;99507.28;;;16.52;100.00
51299;BME280;37382;45.192;9.790;2022-09-27T05:04:13;99508.59;;;16.45;100.00
51299;BME280;37382;45.192;9.790;2022-09-27T05:06:47;99512.63;;;16.32;100.00
51299;BME280;37382;45.192;9.790;2022-09-27T05:09:23;99510.16;;;16.25;100.00
51299;BME280;37382;45.192;9.790;2022-09-27T05:11:54;99506.94;;;15.96;100.00
51299;BME280;37382;45.192;9.790;2022-09-27T05:14:31;99520.69;;;16.01;100.00
51299;BME280;37382;45.192;9.790;2022-09-27T05:17:17;99526.84;;;15.81;100.00
51299;BME280;37382;45.192;9.790;2022-09-27T05:19:47;99525.81;;;15.87;100.00
51299;BME280;37382;45.192;9.790;2022-09-27T05:22:19;99523.16;;;16.03;100.00
51299;BME280;37382;45.192;9.790;2022-09-27T05:24:46;99530.88;;;15.73;100.00
51299;BME280;37382;45.192;9.790;2022-09-27T05:27:15;99537.72;;;15.76;100.00
51299;BME280;37382;45.192;9.790;2022-09-27T05:29:46;99540.31;;;15.82;100.00
51299;BME280;37382;45.192;9.790;2022-09-27T05:32:18;99538.25;;;15.73;100.00
51299;BME280;37382;45.192;9.790;2022-09-27T05:34:51;99542.50;;;15.80;100.00
51299;BME280;37382;45.192;9.790;2022-09-27T05:37:20;99547.97;;;15.80;100.00
51299;BME280;37382;45.192;9.790;2022-09-27T05:39:48;99554.28;;;15.81;100.00
51299;BME280;37382;45.192;9.790;2022-09-27T05:42:16;99551.09;;;15.94;100.00
51299;BME280;37382;45.192;9.790;2022-09-27T05:44:45;99554.13;;;15.98;100.00
51299;BME280;37382;45.192;9.790;2022-09-27T05:47:15;99552.63;;;15.80;100.00
51299;BME280;37382;45.192;9.790;2022-09-27T05:49:43;99557.84;;;15.81;100.00
51299;BME280;37382;45.192;9.790;2022-09-27T05:52:12;99565.25;;;15.81;100.00
51299;BME280;37382;45.192;9.790;2022-09-27T05:54:44;99562.53;;;15.86;100.00
51299;BME280;37382;45.192;9.790;2022-09-27T05:57:14;99566.00;;;15.76;100.00
51299;BME280;37382;45.192;9.790;2022-09-27T05:59:43;99570.31;;;15.67;100.00
51299;BME280;37382;45.192;9.790;2022-09-27T06:02:19;99571.94;;;15.68;100.00
51299;BME280;37382;45.192;9.790;2022-09-27T06:05:06;99562.28;;;15.60;100.00
51299;BME280;37382;45.192;9.790;2022-09-27T06:08:00;99560.94;;;15.90;100.00
51299;BME280;37382;45.192;9.790;2022-09-27T06:10:37;99557.44;;;15.73;100.00
51299;BME280;37382;45.192;9.790;2022-09-27T06:13:11;99558.69;;;15.82;100.00
51299;BME280;37382;45.192;9.790;2022-09-27T06:15:42;99557.94;;;15.92;100.00
51299;BME280;37382;45.192;9.790;2022-09-27T06:18:13;99556.59;;;15.94;100.00
51299;BME280;37382;45.192;9.790;2022-09-27T06:20:44;99564.41;;;16.18;100.00
51299;BME280;37382;45.192;9.790;2022-09-27T06:23:14;99555.44;;;16.28;100.00
51299;BME280;37382;45.192;9.790;2022-09-27T06:25:42;99551.13;;;16.42;100.00
51299;BME280;37382;45.192;9.790;2022-09-27T06:28:33;99550.47;;;16.78;100.00
51299;BME280;37382;45.192;9.790;2022-09-27T06:31:05;99551.00;;;16.64;100.00
51299;BME280;37382;45.192;9.790;2022-09-27T06:33:47;99543.03;;;16.68;100.00
51299;BME280;37382;45.192;9.790;2022-09-27T06:36:16;99546.56;;;16.63;100.00
51299;BME280;37382;45.192;9.790;2022-09-27T06:38:48;99547.81;;;16.88;100.00
51299;BME280;37382;45.192;9.790;2022-09-27T06:41:42;99549.75;;;16.93;100.00
51299;BME280;37382;45.192;9.790;2022-09-27T06:44:27;99550.31;;;16.95;100.00
51299;BME280;37382;45.192;9.790;2022-09-27T06:47:26;99547.06;;;17.13;100.00
51299;BME280;37382;45.192;9.790;2022-09-27T06:50:11;99547.94;;;17.24;100.00
51299;BME280;37382;45.192;9.790;2022-09-27T06:52:46;99550.69;;;17.39;100.00
51299;BME280;37382;45.192;9.790;2022-09-27T06:55:15;99551.25;;;17.57;100.00
51299;BME280;37382;45.192;9.790;2022-09-27T06:57:43;99548.22;;;17.38;100.00
51299;BME280;37382;45.192;9.790;2022-09-27T07:00:29;99553.47;;;17.50;100.00
51299;BME280;37382;45.192;9.790;2022-09-27T07:03:36;99565.03;;;17.62;100.00
51299;BME280;37382;45.192;9.790;2022-09-27T07:06:20;99560.59;;;17.46;100.00
51299;BME280;37382;45.192;9.790;2022-09-27T07:08:57;99564.19;;;17.56;100.00
51299;BME280;37382;45.192;9.790;2022-09-27T07:11:25;99560.06;;;17.64;100.00
51299;BME280;37382;45.192;9.790;2022-09-27T07:13:54;99561.19;;;17.84;100.00
51299;BME280;37382;45.192;9.790;2022-09-27T07:16:22;99567.53;;;17.79;100.00
51299;BME280;37382;45.192;9.790;2022-09-27T07:18:50;99562.88;;;17.90;100.00
51299;BME280;37382;45.192;9.790;2022-09-27T07:21:18;99550.78;;;17.91;100.00
51299;BME280;37382;45.192;9.790;2022-09-27T07:23:46;99570.28;;;17.79;100.00
51299;BME280;37382;45.192;9.790;2022-09-27T07:26:15;99565.88;;;17.88;100.00
51299;BME280;37382;45.192;9.790;2022-09-27T07:28:42;99564.25;;;18.18;100.00
51299;BME280;37382;45.192;9.790;2022-09-27T07:31:14;99560.66;;;18.12;100.00
51299;BME280;37382;45.192;9.790;2022-09-27T07:33:43;99557.06;;;18.22;100.00
51299;BME280;37382;45.192;9.790;2022-09-27T07:36:12;99552.66;;;18.26;100.00
51299;BME280;37382;45.192;9.790;2022-09-27T07:38:42;99560.66;;;18.23;100.00
51299;BME280;37382;45.192;9.790;2022-09-27T07:41:12;99550.41;;;18.49;100.00
51299;BME280;37382;45.192;9.790;2022-09-27T07:43:43;99554.31;;;18.27;100.00
51299;BME280;37382;45.192;9.790;2022-09-27T07:46:12;99563.91;;;18.51;100.00
51299;BME280;37382;45.192;9.790;2022-09-27T07:48:50;99559.94;;;18.93;100.00
51299;BME280;37382;45.192;9.790;2022-09-27T07:51:37;99555.56;;;18.87;100.00
51299;BME280;37382;45.192;9.790;2022-09-27T07:54:09;99560.31;;;18.55;100.00
51299;BME280;37382;45.192;9.790;2022-09-27T07:57:05;99563.91;;;18.40;100.00
51299;BME280;37382;45.192;9.790;2022-09-27T07:59:42;99575.16;;;18.64;100.00
51299;BME280;37382;45.192;9.790;2022-09-27T08:02:16;99563.56;;;18.67;100.00
51299;BME280;37382;45.192;9.790;2022-09-27T08:04:44;99561.88;;;18.77;100.00
51299;BME280;37382;45.192;9.790;2022-09-27T08:07:15;99558.53;;;18.95;100.00
51299;BME280;37382;45.192;9.790;2022-09-27T08:09:46;99561.94;;;18.61;100.00
51299;BME280;37382;45.192;9.790;2022-09-27T08:12:14;99564.84;;;19.01;100.00
51299;BME280;37382;45.192;9.790;2022-09-27T08:14:43;99564.84;;;19.01;100.00
51299;BME280;37382;45.192;9.790;2022-09-27T08:17:16;99564.25;;;19.09;100.00
51299;BME280;37382;45.192;9.790;2022-09-27T08:20:06;99565.44;;;18.82;100.00
51299;BME280;37382;45.192;9.790;2022-09-27T08:22:53;99568.03;;;19.18;100.00
51299;BME280;37382;45.192;9.790;2022-09-27T08:25:25;99569.13;;;19.23;100.00
51299;BME280;37382;45.192;9.790;2022-09-27T08:28:27;99564.00;;;19.50;100.00
51299;BME280;37382;45.192;9.790;2022-09-27T08:31:01;99562.38;;;19.49;100.00
51299;BME280;37382;45.192;9.790;2022-09-27T08:33:30;99564.25;;;19.09;100.00
51299;BME280;37382;45.192;9.790;2022-09-27T08:36:02;99562.03;;;19.56;100.00
51299;BME280;37382;45.192;9.790;2022-09-27T08:38:30;99562.91;;;19.01;100.00
51299;BME280;37382;45.192;9.790;2022-09-27T08:41:08;99565.75;;;19.36;100.00
51299;BME280;37382;45.192;9.790;2022-09-27T08:51:47;99552.53;;;19.33;100.00
51299;BME280;37382;45.192;9.790;2022-09-27T08:54:22;99560.78;;;19.38;100.00
51299;BME280;37382;45.192;9.790;2022-09-27T08:57:04;99550.25;;;19.85;100.00
51299;BME280;37382;45.192;9.790;2022-09-27T08:59:34;99555.16;;;19.93;100.00
51299;BME280;37382;45.192;9.790;2022-09-27T09:02:14;99550.47;;;19.94;100.00
51299;BME280;37382;45.192;9.790;2022-09-27T09:04:48;99549.63;;;19.93;100.00
51299;BME280;37382;45.192;9.790;2022-09-27T09:07:34;99554.53;;;20.31;100.00
51299;BME280;37382;45.192;9.790;2022-09-27T09:12:57;99545.72;;;20.29;100.00
51299;BME280;37382;45.192;9.790;2022-09-27T09:16:01;99546.28;;;20.55;100.00
51299;BME280;37382;45.192;9.790;2022-09-27T09:22:08;99557.44;;;20.44;100.00
51299;BME280;37382;45.192;9.790;2022-09-27T09:31:04;99545.75;;;20.53;100.00
51299;BME280;37382;45.192;9.790;2022-09-27T09:33:40;99540.06;;;20.68;100.00
51299;BME280;37382;45.192;9.790;2022-09-27T09:38:58;99538.03;;;20.98;100.00
51299;BME280;37382;45.192;9.790;2022-09-27T09:41:35;99535.16;;;20.84;100.00
51299;BME280;37382;45.192;9.790;2022-09-27T09:50:24;99540.47;;;21.62;100.00
51299;BME280;37382;45.192;9.790;2022-09-27T09:53:19;99544.88;;;21.25;100.00
51299;BME280;37382;45.192;9.790;2022-09-27T09:55:56;99546.19;;;20.60;100.00
51299;BME280;37382;45.192;9.790;2022-09-27T09:58:53;99538.03;;;20.25;100.00
51299;BME280;37382;45.192;9.790;2022-09-27T10:01:42;99532.09;;;20.67;100.00
51299;BME280;37382;45.192;9.790;2022-09-27T10:04:30;99528.88;;;21.60;100.00
51299;BME280;37382;45.192;9.790;2022-09-27T10:07:01;99527.81;;;21.18;100.00
51299;BME280;37382;45.192;9.790;2022-09-27T10:09:34;99530.97;;;21.49;100.00
51299;BME280;37382;45.192;9.790;2022-09-27T10:12:29;99523.72;;;22.19;100.00
51299;BME280;37382;45.192;9.790;2022-09-27T10:14:59;99527.97;;;21.83;100.00
51299;BME280;37382;45.192;9.790;2022-09-27T10:17:37;99517.66;;;21.70;100.00
51299;BME280;37382;45.192;9.790;2022-09-27T10:20:21;99511.13;;;22.27;100.00
51299;BME280;37382;45.192;9.790;2022-09-27T10:22:53;99514.19;;;21.78;100.00
51299;BME280;37382;45.192;9.790;2022-09-27T10:25:57;99505.75;;;21.31;100.00
51299;BME280;37382;45.192;9.790;2022-09-27T10:28:36;99512.72;;;21.67;100.00
51299;BME280;37382;45.192;9.790;2022-09-27T10:31:07;99510.16;;;21.71;100.00
51299;BME280;37382;45.192;9.790;2022-09-27T10:33:54;99506.44;;;21.61;100.00
51299;BME280;37382;45.192;9.790;2022-09-27T10:36:28;99501.34;;;20.92;100.00
51299;BME280;37382;45.192;9.790;2022-09-27T10:39:04;99497.03;;;21.24;100.00
51299;BME280;37382;45.192;9.790;2022-09-27T10:41:42;99500.91;;;21.61;100.00
51299;BME280;37382;45.192;9.790;2022-09-27T10:46:48;99501.38;;;21.82;100.00
51299;BME280;37382;45.192;9.790;2022-09-27T10:49:34;99486.88;;;22.18;100.00
51299;BME280;37382;45.192;9.790;2022-09-27T10:52:19;99497.38;;;21.75;100.00
51299;BME280;37382;45.192;9.790;2022-09-27T10:54:53;99490.97;;;21.03;100.00
51299;BME280;37382;45.192;9.790;2022-09-27T10:57:23;99487.06;;;20.85;100.00
51299;BME280;37382;45.192;9.790;2022-09-27T11:00:04;99480.19;;;21.40;100.00
51299;BME280;37382;45.192;9.790;2022-09-27T11:02:34;99481.97;;;22.29;100.00
51299;BME280;37382;45.192;9.790;2022-09-27T11:07:52;99483.25;;;21.57;100.00
51299;BME280;37382;45.192;9.790;2022-09-27T11:10:34;99476.59;;;21.91;100.00
51299;BME280;37382;45.192;9.790;2022-09-27T11:13:18;99479.97;;;21.17;100.00
51299;BME280;37382;45.192;9.790;2022-09-27T11:18:43;99480.75;;;21.75;100.00
51299;BME280;37382;45.192;9.790;2022-09-27T11:24:05;99480.75;;;21.75;100.00
51299;BME280;37382;45.192;9.790;2022-09-27T11:29:23;99465.78;;;22.36;100.00
51299;BME280;37382;45.192;9.790;2022-09-27T11:38:08;99454.81;;;22.96;100.00
51299;BME280;37382;45.192;9.790;2022-09-27T11:41:23;99458.66;;;22.86;100.00
51299;BME280;37382;45.192;9.790;2022-09-27T11:46:34;99450.28;;;22.63;100.00
51299;BME280;37382;45.192;9.790;2022-09-27T11:57:35;99435.00;;;22.88;93.11
51299;BME280;37382;45.192;9.790;2022-09-27T12:05:31;99422.06;;;23.12;88.78
51299;BME280;37382;45.192;9.790;2022-09-27T12:10:42;99425.66;;;23.89;87.53
51299;BME280;37382;45.192;9.790;2022-09-27T12:13:14;99428.25;;;24.17;87.90
51299;BME280;37382;45.192;9.790;2022-09-27T12:15:48;99423.41;;;23.91;86.97
51299;BME280;37382;45.192;9.790;2022-09-27T12:18:27;99421.84;;;24.65;87.83
51299;BME280;37382;45.192;9.790;2022-09-27T12:21:00;99415.38;;;24.96;82.65
51299;BME280;37382;45.192;9.790;2022-09-27T12:23:45;99420.44;;;24.85;76.36
51299;BME280;37382;45.192;9.790;2022-09-27T12:26:40;99413.84;;;24.63;75.12
51299;BME280;37382;45.192;9.790;2022-09-27T12:29:31;99415.44;;;24.56;73.37
51299;BME280;37382;45.192;9.790;2022-09-27T12:32:21;99415.66;;;24.10;74.94
51299;BME280;37382;45.192;9.790;2022-09-27T12:34:56;99410.97;;;23.66;74.62
51299;BME280;37382;45.192;9.790;2022-09-27T12:37:33;99415.00;;;23.82;76.47
51299;BME280;37382;45.192;9.790;2022-09-27T12:40:11;99421.09;;;24.33;72.72
51299;BME280;37382;45.192;9.790;2022-09-27T12:42:52;99419.00;;;24.39;66.57
51299;BME280;37382;45.192;9.790;2022-09-27T12:45:39;99410.38;;;24.49;68.67
51299;BME280;37382;45.192;9.790;2022-09-27T12:51:07;99415.34;;;24.12;63.45
51299;BME280;37382;45.192;9.790;2022-09-27T13:07:54;99417.31;;;24.78;62.98
51299;BME280;37382;45.192;9.790;2022-09-27T13:10:46;99403.84;;;24.54;63.78
51299;BME280;37382;45.192;9.790;2022-09-27T13:13:24;99405.38;;;24.86;60.04
51299;BME280;37382;45.192;9.790;2022-09-27T13:15:59;99411.38;;;24.62;59.27
51299;BME280;37382;45.192;9.790;2022-09-27T13:21:05;99415.19;;;25.01;57.41
51299;BME280;37382;45.192;9.790;2022-09-27T13:34:42;99420.44;;;25.11;52.30
51299;BME280;37382;45.192;9.790;2022-09-27T13:37:33;99414.50;;;26.13;51.10
51299;BME280;37382;45.192;9.790;2022-09-27T13:40:26;99409.03;;;25.78;49.78
51299;BME280;37382;45.192;9.790;2022-09-27T13:46:06;99409.47;;;25.41;51.56
51299;BME280;37382;45.192;9.790;2022-09-27T13:48:53;99410.88;;;27.02;49.06
51299;BME280;37382;45.192;9.790;2022-09-27T13:51:39;99251.25;;;33.39;37.40
51299;BME280;37382;45.192;9.790;2022-09-27T13:54:35;99287.63;;;33.13;33.10
51299;BME280;37382;45.192;9.790;2022-09-27T14:00:09;99164.34;;;38.37;25.88
51299;BME280;37382;45.192;9.790;2022-09-27T14:03:05;99167.97;;;40.54;23.60
51299;BME280;37382;45.192;9.790;2022-09-27T14:05:39;99179.81;;;39.21;23.12
51299;BME280;37382;45.192;9.790;2022-09-27T14:08:28;99178.91;;;42.46;21.72
51299;BME280;37382;45.192;9.790;2022-09-27T14:10:57;99181.72;;;41.91;20.84
51299;BME280;37382;45.192;9.790;2022-09-27T14:13:26;99194.38;;;42.19;19.29
51299;BME280;37382;45.192;9.790;2022-09-27T14:16:03;99205.81;;;40.91;20.22
51299;BME280;37382;45.192;9.790;2022-09-27T14:18:42;99219.50;;;40.80;19.46
51299;BME280;37382;45.192;9.790;2022-09-27T14:21:24;99239.66;;;39.14;20.70
51299;BME280;37382;45.192;9.790;2022-09-27T14:26:45;99305.31;;;41.05;19.87
51299;BME280;37382;45.192;9.790;2022-09-27T14:29:21;99362.63;;;35.62;24.50
51299;BME280;37382;45.192;9.790;2022-09-27T14:32:05;99369.47;;;35.47;25.01
51299;BME280;37382;45.192;9.790;2022-09-27T14:35:14;99371.19;;;33.32;26.56
51299;BME280;37382;45.192;9.790;2022-09-27T14:38:03;99361.75;;;34.52;25.47
51299;BME280;37382;45.192;9.790;2022-09-27T14:43:20;99392.03;;;32.94;26.41
51299;BME280;37382;45.192;9.790;2022-09-27T14:45:51;99399.47;;;30.30;29.92
51299;BME280;37382;45.192;9.790;2022-09-27T14:48:29;99386.28;;;33.17;26.65
51299;BME280;37382;45.192;9.790;2022-09-27T14:53:36;99392.16;;;33.73;24.67
51299;BME280;37382;45.192;9.790;2022-09-27T14:56:04;99393.72;;;32.98;25.90
51299;BME280;37382;45.192;9.790;2022-09-27T14:58:33;99397.81;;;34.21;26.07
51299;BME280;37382;45.192;9.790;2022-09-27T15:01:17;99399.50;;;30.14;29.64
51299;BME280;37382;45.192;9.790;2022-09-27T15:03:47;99392.22;;;30.61;30.42
51299;BME280;37382;45.192;9.790;2022-09-27T15:06:15;99400.88;;;29.60;30.55
51299;BME280;37382;45.192;9.790;2022-09-27T15:08:43;99398.16;;;29.48;31.35
51299;BME280;37382;45.192;9.790;2022-09-27T15:11:17;99401.50;;;29.82;29.18
51299;BME280;37382;45.192;9.790;2022-09-27T15:13:48;99400.63;;;33.73;25.23
51299;BME280;37382;45.192;9.790;2022-09-27T15:16:20;99391.53;;;31.22;26.66
51299;BME280;37382;45.192;9.790;2022-09-27T15:19:01;99406.09;;;30.22;29.45
51299;BME280;37382;45.192;9.790;2022-09-27T15:21:32;99396.84;;;28.88;30.73
51299;BME280;37382;45.192;9.790;2022-09-27T15:24:01;99402.16;;;28.28;31.01
51299;BME280;37382;45.192;9.790;2022-09-27T15:29:05;99397.69;;;28.52;31.44
51299;BME280;37382;45.192;9.790;2022-09-27T15:31:35;99397.63;;;28.11;31.65
51299;BME280;37382;45.192;9.790;2022-09-27T15:34:03;99402.81;;;28.74;31.64
51299;BME280;37382;45.192;9.790;2022-09-27T15:36:52;99393.28;;;28.01;31.92
51299;BME280;37382;45.192;9.790;2022-09-27T15:39:41;99395.25;;;27.22;33.20
51299;BME280;37382;45.192;9.790;2022-09-27T15:42:10;99390.53;;;26.50;34.27
51299;BME280;37382;45.192;9.790;2022-09-27T15:44:52;99404.91;;;25.92;35.40
51299;BME280;37382;45.192;9.790;2022-09-27T15:50:31;99425.81;;;25.08;36.74
51299;BME280;37382;45.192;9.790;2022-09-27T15:52:59;99427.78;;;24.72;38.63
51299;BME280;37382;45.192;9.790;2022-09-27T15:55:31;99432.06;;;24.96;40.09
51299;BME280;37382;45.192;9.790;2022-09-27T15:58:03;99425.66;;;25.04;39.49
51299;BME280;37382;45.192;9.790;2022-09-27T16:00:35;99424.88;;;25.38;38.86
51299;BME280;37382;45.192;9.790;2022-09-27T16:03:03;99428.88;;;25.76;37.91
51299;BME280;37382;45.192;9.790;2022-09-27T16:05:31;99418.63;;;27.17;35.63
51299;BME280;37382;45.192;9.790;2022-09-27T16:08:00;99414.97;;;28.17;33.59
51299;BME280;37382;45.192;9.790;2022-09-27T16:10:34;99414.06;;;30.36;31.42
51299;BME280;37382;45.192;9.790;2022-09-27T16:13:03;99419.78;;;29.63;30.91
51299;BME280;37382;45.192;9.790;2022-09-27T16:15:31;99416.75;;;29.68;31.28